createdAt,value
2022-11-23T00:02:04.338Z,38.24
2022-11-23T00:04:30.978Z,38.30
2022-11-23T00:06:57.354Z,38.38
2022-11-23T00:09:23.747Z,38.31
2022-11-23T00:11:50.186Z,38.32
2022-11-23T00:14:16.575Z,38.32
2022-11-23T00:16:43.032Z,38.38
2022-11-23T00:19:09.413Z,38.38
2022-11-23T00:21:35.867Z,38.44
2022-11-23T00:24:02.256Z,38.44
2022-11-23T00:26:28.688Z,38.42
2022-11-23T00:28:55.078Z,38.42
2022-11-23T00:31:21.502Z,38.48
2022-11-23T00:33:47.915Z,38.47
2022-11-23T00:36:14.344Z,38.54
2022-11-23T00:38:40.744Z,38.53
2022-11-23T00:41:07.180Z,38.52
2022-11-23T00:43:33.574Z,38.54
2022-11-23T00:46:00.002Z,38.63
2022-11-23T00:48:26.396Z,38.65
2022-11-23T00:50:52.855Z,38.62
2022-11-23T00:53:19.243Z,38.67
2022-11-23T00:55:45.680Z,38.66
2022-11-23T00:58:12.127Z,38.63
2022-11-23T01:00:38.506Z,38.64
2022-11-23T01:03:04.885Z,38.67
2022-11-23T01:05:31.275Z,38.72
2022-11-23T01:07:57.617Z,38.71
2022-11-23T01:10:24.022Z,38.73
2022-11-23T01:12:50.402Z,38.73
2022-11-23T01:15:16.749Z,38.76
2022-11-23T01:17:43.109Z,38.72
2022-11-23T01:20:09.503Z,38.75
2022-11-23T01:22:35.848Z,38.76
2022-11-23T01:25:02.240Z,38.88
2022-11-23T01:27:28.944Z,38.78
2022-11-23T01:29:55.339Z,38.78
2022-11-23T01:32:21.683Z,38.81
2022-11-23T01:34:48.088Z,38.78
2022-11-23T01:37:14.467Z,38.89
2022-11-23T01:39:40.874Z,38.83
2022-11-23T01:42:07.231Z,38.86
2022-11-23T01:44:33.629Z,38.95
2022-11-23T01:46:59.984Z,38.85
2022-11-23T01:49:26.375Z,38.91
2022-11-23T01:51:52.723Z,38.88
2022-11-23T01:54:19.109Z,38.94
2022-11-23T01:56:47.636Z,38.89
2022-11-23T01:59:14.021Z,38.89
2022-11-23T02:01:40.368Z,38.94
2022-11-23T02:04:06.763Z,38.94
2022-11-23T02:06:35.927Z,38.95
2022-11-23T02:09:02.315Z,39.00
2022-11-23T02:11:28.659Z,38.99
2022-11-23T02:13:55.055Z,38.99
2022-11-23T02:16:21.401Z,38.99
2022-11-23T02:18:47.795Z,39.02
2022-11-23T02:21:14.138Z,39.03
2022-11-23T02:23:40.537Z,39.01
2022-11-23T02:26:06.884Z,39.04
2022-11-23T02:28:33.274Z,39.07
2022-11-23T02:30:59.620Z,39.07
2022-11-23T02:33:26.005Z,39.07
2022-11-23T02:35:52.352Z,39.06
2022-11-23T02:38:18.771Z,39.10
2022-11-23T02:40:45.107Z,39.18
2022-11-23T02:43:11.511Z,39.11
2022-11-23T02:45:37.853Z,39.11
2022-11-23T02:48:04.244Z,39.09
2022-11-23T02:50:30.595Z,39.10
2022-11-23T02:52:57.018Z,39.12
2022-11-23T02:55:23.359Z,39.13
2022-11-23T02:57:49.760Z,39.14
2022-11-23T03:00:16.111Z,39.18
2022-11-23T03:02:42.496Z,39.25
2022-11-23T03:05:08.880Z,39.21
2022-11-23T03:07:35.258Z,39.16
2022-11-23T03:10:01.604Z,39.08
2022-11-23T03:12:27.986Z,39.10
2022-11-23T03:14:54.346Z,39.08
2022-11-23T03:17:20.808Z,39.01
2022-11-23T03:19:47.197Z,38.92
2022-11-23T03:22:13.583Z,38.84
2022-11-23T03:24:39.997Z,38.82
2022-11-23T03:27:06.381Z,38.72
2022-11-23T03:29:33.123Z,38.67
2022-11-23T03:31:59.119Z,38.64
2022-11-23T03:34:25.466Z,38.58
2022-11-23T03:36:51.857Z,38.52
2022-11-23T03:39:18.202Z,38.47
2022-11-23T03:41:44.616Z,38.45
2022-11-23T03:44:10.959Z,38.39
2022-11-23T03:46:37.345Z,38.41
2022-11-23T03:49:03.710Z,38.37
2022-11-23T03:51:30.097Z,38.33
2022-11-23T03:53:56.510Z,38.28
2022-11-23T03:56:22.904Z,38.21
2022-11-23T03:58:49.250Z,38.18
2022-11-23T04:01:15.746Z,38.21
2022-11-23T04:03:42.001Z,38.17
2022-11-23T04:06:08.385Z,38.15
2022-11-23T04:08:34.740Z,38.16
2022-11-23T04:11:01.125Z,38.15
2022-11-23T04:13:27.464Z,38.09
2022-11-23T04:15:53.856Z,38.07
2022-11-23T04:18:20.210Z,38.03
2022-11-23T04:20:46.628Z,38.08
2022-11-23T04:23:13.568Z,38.01
2022-11-23T04:25:39.382Z,38.02
2022-11-23T04:28:05.743Z,38.00
2022-11-23T04:30:32.112Z,37.98
2022-11-23T04:32:58.459Z,37.96
2022-11-23T04:35:24.856Z,37.92
2022-11-23T04:37:51.206Z,37.88
2022-11-23T04:40:17.593Z,37.89
2022-11-23T04:42:43.938Z,37.88
2022-11-23T04:45:10.325Z,37.84
2022-11-23T04:47:36.669Z,37.81
2022-11-23T04:50:03.052Z,37.81
2022-11-23T04:52:29.394Z,37.79
2022-11-23T04:54:55.816Z,37.73
2022-11-23T04:57:23.385Z,37.74
2022-11-23T04:59:48.562Z,37.71
2022-11-23T05:02:15.016Z,37.71
2022-11-23T05:04:41.306Z,37.70
2022-11-23T05:07:07.720Z,37.69
2022-11-23T05:09:34.232Z,37.67
2022-11-23T05:12:00.393Z,37.64
2022-11-23T05:14:26.777Z,37.62
2022-11-23T05:16:53.127Z,37.63
2022-11-23T05:19:19.522Z,37.58
2022-11-23T05:21:45.871Z,37.58
2022-11-23T05:24:12.265Z,37.58
2022-11-23T05:26:38.634Z,37.60
2022-11-23T05:29:05.054Z,37.55
2022-11-23T05:31:31.418Z,37.48
2022-11-23T05:33:57.790Z,37.36
2022-11-23T05:36:24.134Z,37.39
2022-11-23T05:38:50.534Z,37.22
2022-11-23T05:41:16.875Z,37.16
2022-11-23T05:43:43.269Z,37.10
2022-11-23T05:46:09.620Z,37.12
2022-11-23T05:48:36.013Z,37.18
2022-11-23T05:51:05.501Z,37.10
2022-11-23T05:53:28.736Z,37.04
2022-11-23T05:55:55.128Z,37.00
2022-11-23T05:58:21.481Z,36.93
2022-11-23T06:00:47.862Z,37.09
2022-11-23T06:03:14.237Z,37.11
2022-11-23T06:05:40.623Z,37.04
2022-11-23T06:08:06.970Z,37.12
2022-11-23T06:10:33.358Z,37.10
2022-11-23T06:12:59.706Z,36.97
2022-11-23T06:15:26.094Z,37.06
2022-11-23T06:17:52.515Z,37.02
2022-11-23T06:20:18.902Z,37.04
2022-11-23T06:22:45.281Z,37.08
2022-11-23T06:25:11.667Z,37.02
2022-11-23T06:27:38.011Z,36.95
2022-11-23T06:30:04.396Z,36.86
2022-11-23T06:32:30.741Z,36.86
2022-11-23T06:35:00.789Z,36.86
2022-11-23T06:37:23.486Z,36.83
2022-11-23T06:39:49.977Z,36.85
2022-11-23T06:42:37.714Z,36.88
2022-11-23T06:44:42.729Z,36.90
2022-11-23T06:47:13.926Z,36.90
2022-11-23T06:49:35.482Z,36.88
2022-11-23T06:52:01.827Z,36.89
2022-11-23T06:54:28.215Z,36.89
2022-11-23T06:56:54.564Z,37.03
2022-11-23T06:59:20.971Z,37.08
2022-11-23T07:01:47.395Z,37.05
2022-11-23T07:04:13.741Z,37.14
2022-11-23T07:06:40.082Z,37.08
2022-11-23T07:09:06.479Z,37.14
2022-11-23T07:11:32.826Z,37.07
2022-11-23T07:13:59.253Z,37.14
2022-11-23T07:16:25.628Z,37.18
2022-11-23T07:18:52.015Z,37.24
2022-11-23T07:21:18.368Z,37.25
2022-11-23T07:23:44.841Z,37.22
2022-11-23T07:26:11.213Z,37.23
2022-11-23T07:28:37.590Z,37.20
2022-11-23T07:31:03.935Z,37.36
2022-11-23T07:33:30.329Z,37.25
2022-11-23T07:35:56.686Z,37.36
2022-11-23T07:38:23.081Z,37.55
2022-11-23T07:40:49.428Z,37.32
2022-11-23T07:43:15.835Z,37.42
2022-11-23T07:45:42.183Z,37.37
2022-11-23T07:48:08.578Z,37.36
2022-11-23T07:50:34.920Z,37.46
2022-11-23T07:53:01.319Z,37.48
2022-11-23T07:55:27.671Z,37.44
2022-11-23T07:57:54.084Z,37.50
2022-11-23T08:00:20.489Z,37.55
2022-11-23T08:03:04.571Z,37.51
2022-11-23T08:05:14.396Z,37.38
2022-11-23T08:07:39.771Z,37.37
2022-11-23T08:10:06.084Z,37.39
2022-11-23T08:15:11.168Z,37.50
2022-11-23T08:17:37.534Z,37.51
2022-11-23T08:20:03.948Z,37.48
2022-11-23T08:22:30.358Z,37.44
2022-11-23T08:24:56.735Z,37.52
2022-11-23T08:27:23.215Z,37.51
2022-11-23T08:29:49.607Z,37.56
2022-11-23T08:32:15.959Z,37.58
2022-11-23T08:34:42.380Z,37.59
2022-11-23T08:37:08.785Z,37.49
2022-11-23T08:39:35.213Z,37.54
2022-11-23T08:42:01.623Z,37.63
2022-11-23T08:44:28.090Z,37.67
2022-11-23T08:46:54.533Z,37.59
2022-11-23T08:49:20.983Z,37.53
2022-11-23T08:51:50.320Z,37.44
2022-11-23T08:54:13.925Z,37.54
2022-11-23T08:56:40.372Z,37.69
2022-11-23T08:59:06.819Z,37.66
2022-11-23T09:01:33.293Z,37.71
2022-11-23T09:03:59.656Z,37.72
2022-11-23T09:06:26.004Z,37.83
2022-11-23T09:08:52.405Z,37.77
2022-11-23T09:11:18.761Z,37.78
2022-11-23T09:13:45.163Z,37.82
2022-11-23T09:16:11.513Z,37.84
2022-11-23T09:18:37.948Z,37.92
2022-11-23T09:21:04.305Z,37.88
2022-11-23T09:23:30.724Z,37.92
2022-11-23T09:25:57.067Z,38.00
2022-11-23T09:28:23.527Z,38.05
2022-11-23T09:30:49.869Z,38.07
2022-11-23T09:33:16.284Z,37.97
2022-11-23T09:35:44.151Z,37.99
2022-11-23T09:38:09.035Z,37.97
2022-11-23T09:40:35.410Z,38.02
2022-11-23T09:43:01.856Z,38.02
2022-11-23T09:45:28.205Z,38.08
2022-11-23T09:47:54.607Z,38.08
2022-11-23T09:50:20.979Z,38.03
2022-11-23T09:52:47.352Z,38.00
2022-11-23T09:55:13.688Z,37.97
2022-11-23T09:57:40.091Z,37.96
2022-11-23T10:00:06.440Z,37.86
2022-11-23T10:02:32.827Z,37.91
2022-11-23T10:04:59.170Z,37.83
2022-11-23T10:07:25.681Z,37.89
2022-11-23T10:09:51.967Z,37.78
2022-11-23T10:12:18.348Z,37.76
2022-11-23T10:14:44.704Z,37.85
2022-11-23T10:17:11.107Z,37.72
2022-11-23T10:19:37.456Z,37.66
2022-11-23T10:22:03.859Z,37.65
2022-11-23T10:24:30.578Z,37.76
2022-11-23T10:26:56.635Z,37.75
2022-11-23T10:29:22.979Z,37.68
2022-11-23T10:31:52.747Z,37.65
2022-11-23T10:34:15.740Z,37.67
2022-11-23T10:36:42.126Z,37.65
2022-11-23T10:39:08.499Z,37.70
2022-11-23T10:41:34.906Z,37.69
2022-11-23T10:44:01.238Z,37.64
2022-11-23T10:46:27.715Z,37.73
2022-11-23T10:48:53.985Z,37.68
2022-11-23T10:51:20.380Z,37.74
2022-11-23T10:53:46.717Z,37.73
2022-11-23T10:56:13.105Z,37.69
2022-11-23T10:58:39.453Z,37.68
2022-11-23T11:01:05.925Z,37.63
2022-11-23T11:03:32.270Z,37.32
2022-11-23T11:06:13.904Z,37.67
2022-11-23T11:08:25.453Z,37.67
2022-11-23T11:10:51.873Z,37.58
2022-11-23T11:13:18.217Z,37.54
2022-11-23T11:15:47.556Z,37.60
2022-11-23T11:18:11.027Z,37.72
2022-11-23T11:20:37.382Z,37.61
2022-11-23T11:23:03.746Z,37.61
2022-11-23T11:25:30.132Z,37.52
2022-11-23T11:27:56.475Z,37.53
2022-11-23T11:30:22.897Z,37.58
2022-11-23T11:32:49.253Z,37.54
2022-11-23T11:35:20.619Z,37.41
2022-11-23T11:37:41.992Z,37.60
2022-11-23T11:40:08.392Z,37.38
2022-11-23T11:42:34.743Z,37.68
2022-11-23T11:45:01.139Z,37.17
2022-11-23T11:47:27.489Z,37.17
2022-11-23T11:49:53.873Z,37.15
2022-11-23T11:52:20.209Z,37.40
2022-11-23T11:54:46.599Z,37.26
2022-11-23T11:57:13.960Z,37.32
2022-11-23T11:59:39.401Z,37.69
2022-11-23T12:02:05.749Z,37.69
2022-11-23T12:04:32.370Z,37.34
2022-11-23T12:06:58.583Z,37.43
2022-11-23T12:09:25.001Z,37.44
2022-11-23T12:11:51.348Z,36.90
2022-11-23T12:14:17.753Z,36.26
2022-11-23T12:16:44.094Z,35.92
2022-11-23T12:19:10.488Z,36.08
2022-11-23T12:21:37.021Z,35.63
2022-11-23T12:24:03.283Z,35.79
2022-11-23T12:26:29.640Z,35.79
2022-11-23T12:28:56.060Z,35.63
2022-11-23T12:31:22.436Z,35.57
2022-11-23T12:36:16.724Z,34.69
2022-11-23T12:38:41.580Z,34.62
2022-11-23T12:41:07.928Z,34.53
2022-11-23T12:43:36.616Z,34.25
2022-11-23T12:46:00.663Z,34.32
2022-11-23T12:48:27.066Z,34.28
2022-11-23T12:50:54.639Z,34.30
2022-11-23T12:53:19.872Z,34.25
2022-11-23T12:55:46.170Z,34.08
2022-11-23T12:58:12.590Z,34.24
2022-11-23T13:00:38.990Z,33.89
2022-11-23T13:03:05.352Z,33.76
2022-11-23T13:05:31.704Z,33.71
2022-11-23T13:07:58.124Z,33.62
2022-11-23T13:10:24.449Z,34.37
2022-11-23T13:12:50.837Z,33.70
2022-11-23T13:15:17.183Z,33.77
2022-11-23T13:17:43.587Z,34.28
2022-11-23T13:20:10.118Z,34.57
2022-11-23T13:22:36.500Z,34.64
2022-11-23T13:25:02.844Z,35.34
2022-11-23T13:27:31.722Z,34.93
2022-11-23T13:29:55.564Z,34.75
2022-11-23T13:32:21.975Z,34.86
2022-11-23T13:34:48.295Z,34.96
2022-11-23T13:37:14.788Z,34.95
2022-11-23T13:39:41.055Z,34.99
2022-11-23T13:42:07.423Z,34.97
2022-11-23T13:44:34.101Z,35.02
2022-11-23T13:47:00.184Z,35.09
2022-11-23T13:49:26.520Z,35.06
2022-11-23T13:51:52.935Z,35.08
2022-11-23T13:54:19.279Z,35.07
2022-11-23T13:56:45.688Z,34.97
2022-11-23T13:59:12.034Z,35.04
2022-11-23T14:01:38.439Z,35.00
2022-11-23T14:04:04.770Z,35.05
2022-11-23T14:06:31.161Z,35.10
2022-11-23T14:08:57.538Z,35.02
2022-11-23T14:11:23.943Z,35.05
2022-11-23T14:13:50.293Z,35.07
2022-11-23T14:16:16.757Z,35.10
2022-11-23T14:18:43.027Z,35.16
2022-11-23T14:21:09.422Z,35.18
2022-11-23T14:23:35.766Z,35.17
2022-11-23T14:26:02.190Z,35.12
2022-11-23T14:28:28.561Z,35.18
2022-11-23T14:30:54.950Z,35.19
2022-11-23T14:33:21.293Z,35.07
2022-11-23T14:35:47.713Z,35.21
2022-11-23T14:38:14.080Z,35.17
2022-11-23T14:40:40.486Z,35.12
2022-11-23T14:43:06.841Z,35.11
2022-11-23T14:45:34.242Z,35.14
2022-11-23T14:47:59.574Z,35.03
2022-11-23T14:50:27.696Z,35.02
2022-11-23T14:52:52.336Z,35.02
2022-11-23T14:55:18.737Z,34.98
2022-11-23T14:57:45.097Z,35.05
2022-11-23T15:00:12.060Z,35.07
2022-11-23T15:02:37.836Z,35.01
2022-11-23T15:05:04.325Z,35.00
2022-11-23T15:07:30.638Z,35.00
2022-11-23T15:09:56.981Z,35.02
2022-11-23T15:12:23.323Z,34.94
2022-11-23T15:14:49.740Z,34.98
2022-11-23T15:17:16.086Z,34.97
2022-11-23T15:19:42.529Z,34.92
2022-11-23T15:22:08.890Z,34.96
2022-11-23T15:24:35.744Z,35.12
2022-11-23T15:27:01.599Z,34.94
2022-11-23T15:29:27.984Z,34.63
2022-11-23T15:32:14.084Z,34.63
2022-11-23T15:34:20.699Z,35.00
2022-11-23T15:36:47.039Z,34.92
2022-11-23T15:39:13.427Z,34.99
2022-11-23T15:41:39.757Z,34.93
2022-11-23T15:44:08.536Z,34.97
2022-11-23T15:46:34.940Z,34.84
2022-11-23T15:49:01.269Z,34.82
2022-11-23T15:51:27.616Z,34.86
2022-11-23T15:53:54.004Z,34.79
2022-11-23T15:56:20.345Z,34.86
2022-11-23T15:58:46.732Z,34.95
2022-11-23T16:01:13.168Z,34.85
2022-11-23T16:03:39.463Z,34.76
2022-11-23T16:06:05.817Z,34.86
2022-11-23T16:08:32.254Z,34.76
2022-11-23T16:10:58.595Z,34.92
2022-11-23T16:13:24.993Z,34.92
2022-11-23T16:15:51.336Z,34.83
2022-11-23T16:18:17.734Z,34.79
2022-11-23T16:20:44.065Z,35.08
2022-11-23T16:23:10.453Z,35.08
2022-11-23T16:25:36.799Z,34.64
2022-11-23T16:28:03.198Z,34.56
2022-11-23T16:30:29.595Z,34.68
2022-11-23T16:32:55.913Z,34.58
2022-11-23T16:35:22.247Z,34.76
2022-11-23T16:37:48.630Z,34.67
2022-11-23T16:40:14.970Z,34.69
2022-11-23T16:42:41.356Z,34.65
2022-11-23T16:45:07.709Z,34.50
2022-11-23T16:47:34.083Z,34.67
2022-11-23T16:50:00.451Z,34.59
2022-11-23T16:52:26.959Z,34.58
2022-11-23T16:54:53.299Z,34.66
2022-11-23T16:57:19.682Z,34.66
2022-11-23T16:59:46.024Z,34.73
2022-11-23T17:02:12.445Z,34.63
2022-11-23T17:04:38.804Z,34.64
2022-11-23T17:07:05.157Z,34.50
2022-11-23T17:09:31.774Z,34.72
2022-11-23T17:11:57.876Z,34.72
2022-11-23T17:14:29.154Z,34.68
2022-11-23T17:16:50.612Z,34.69
2022-11-23T17:19:17.414Z,34.71
2022-11-23T17:21:43.792Z,34.75
2022-11-23T17:24:10.166Z,34.79
2022-11-23T17:26:36.541Z,34.75
2022-11-23T17:29:02.881Z,34.77
2022-11-23T17:31:29.281Z,34.75
2022-11-23T17:33:55.599Z,34.71
2022-11-23T17:36:21.997Z,34.74
2022-11-23T17:38:48.342Z,34.74
2022-11-23T17:41:14.735Z,34.72
2022-11-23T17:43:41.080Z,35.00
2022-11-23T17:46:07.508Z,34.68
2022-11-23T17:48:33.810Z,34.71
2022-11-23T17:51:00.194Z,34.85
2022-11-23T17:53:26.527Z,34.85
2022-11-23T17:55:52.904Z,34.83
2022-11-23T17:58:20.924Z,34.86
2022-11-23T18:00:45.653Z,34.80
2022-11-23T18:03:12.059Z,34.78
2022-11-23T18:05:38.411Z,34.79
2022-11-23T18:08:04.745Z,34.90
2022-11-23T18:10:31.127Z,34.72
2022-11-23T18:12:57.463Z,34.72
2022-11-23T18:15:23.847Z,34.84
2022-11-23T18:17:50.186Z,34.71
2022-11-23T18:20:16.600Z,34.32
2022-11-23T18:22:42.940Z,34.32
2022-11-23T18:25:09.389Z,34.85
2022-11-23T18:27:35.741Z,34.85
2022-11-23T18:30:02.143Z,34.45
2022-11-23T18:32:28.482Z,34.45
2022-11-23T18:34:54.879Z,34.61
2022-11-23T18:37:21.266Z,34.56
2022-11-23T18:39:48.546Z,34.47
2022-11-23T18:42:14.920Z,34.57
2022-11-23T18:44:41.263Z,34.57
2022-11-23T18:47:07.645Z,34.52
2022-11-23T18:49:34.351Z,34.51
2022-11-23T18:52:00.393Z,34.36
2022-11-23T18:54:26.727Z,34.55
2022-11-23T18:56:53.112Z,34.55
2022-11-23T18:59:49.792Z,34.58
2022-11-23T19:01:48.042Z,34.56
2022-11-23T19:04:14.350Z,34.36
2022-11-23T19:06:40.730Z,34.36
2022-11-23T19:09:07.114Z,34.79
2022-11-23T19:11:33.485Z,34.76
2022-11-23T19:13:59.826Z,35.03
2022-11-23T19:16:26.219Z,35.03
2022-11-23T19:18:52.560Z,34.98
2022-11-23T19:21:18.958Z,35.15
2022-11-23T19:23:45.300Z,35.11
2022-11-23T19:26:11.680Z,35.18
2022-11-23T19:28:38.017Z,35.21
2022-11-23T19:31:04.416Z,35.34
2022-11-23T19:33:30.750Z,35.47
2022-11-23T19:35:57.146Z,35.54
2022-11-23T19:38:23.494Z,35.54
2022-11-23T19:40:49.868Z,35.54
2022-11-23T19:43:16.254Z,35.57
2022-11-23T19:45:42.636Z,35.52
2022-11-23T19:48:08.987Z,35.65
2022-11-23T19:50:35.362Z,35.64
2022-11-23T19:53:12.287Z,35.76
2022-11-23T19:55:28.086Z,35.75
2022-11-23T19:57:56.389Z,35.86
2022-11-23T20:00:20.843Z,35.90
2022-11-23T20:02:49.554Z,35.91
2022-11-23T20:05:13.677Z,35.93
2022-11-23T20:07:39.980Z,36.06
2022-11-23T20:10:06.317Z,36.01
2022-11-23T20:12:32.761Z,36.08
2022-11-23T20:14:59.150Z,36.21
2022-11-23T20:17:25.487Z,36.21
2022-11-23T20:19:51.888Z,36.12
2022-11-23T20:22:18.234Z,36.21
2022-11-23T20:24:44.612Z,36.24
2022-11-23T20:27:11.072Z,36.28
2022-11-23T20:29:37.463Z,36.35
2022-11-23T20:32:03.835Z,36.38
2022-11-23T20:34:30.179Z,36.41
2022-11-23T20:36:56.528Z,36.50
2022-11-23T20:39:22.914Z,36.46
2022-11-23T20:41:49.280Z,36.43
2022-11-23T20:44:15.645Z,36.53
2022-11-23T20:49:08.370Z,36.54
2022-11-23T20:51:34.707Z,36.56
2022-11-23T20:54:01.092Z,36.60
2022-11-23T20:56:27.606Z,36.54
2022-11-23T20:58:53.828Z,36.60
2022-11-23T21:01:20.201Z,36.60
2022-11-23T21:03:46.559Z,36.68
2022-11-23T21:06:12.907Z,36.59
2022-11-23T21:08:39.289Z,36.71
2022-11-23T21:11:05.632Z,36.78
2022-11-23T21:13:37.188Z,36.74
2022-11-23T21:15:58.388Z,36.80
2022-11-23T21:18:24.749Z,36.86
2022-11-23T21:20:51.099Z,36.85
2022-11-23T21:23:17.478Z,36.85
2022-11-23T21:25:43.822Z,36.88
2022-11-23T21:28:10.210Z,36.92
2022-11-23T21:30:36.555Z,36.97
2022-11-23T21:33:02.941Z,37.00
2022-11-23T21:35:29.289Z,36.99
2022-11-23T21:37:55.668Z,37.01
2022-11-23T21:40:22.011Z,37.02
2022-11-23T21:42:48.415Z,37.03
2022-11-23T21:45:14.763Z,37.06
2022-11-23T21:47:41.149Z,37.10
2022-11-23T21:50:09.178Z,37.13
2022-11-23T21:52:33.891Z,37.13
2022-11-23T21:55:00.229Z,37.18
2022-11-23T21:57:26.619Z,37.20
2022-11-23T21:59:53.002Z,37.22
2022-11-23T22:02:19.375Z,37.11
2022-11-23T22:04:45.708Z,37.11
2022-11-23T22:07:12.168Z,37.30
2022-11-23T22:09:38.449Z,37.32
2022-11-23T22:12:04.793Z,37.32
2022-11-23T22:14:31.454Z,37.39
2022-11-23T22:16:57.486Z,37.37
2022-11-23T22:19:23.826Z,37.37
2022-11-23T22:21:50.210Z,37.39
2022-11-23T22:24:16.552Z,37.43
2022-11-23T22:26:42.899Z,37.46
2022-11-23T22:29:09.241Z,37.46
2022-11-23T22:31:35.639Z,37.53
2022-11-23T22:34:01.937Z,37.52
2022-11-23T22:36:28.291Z,37.52
2022-11-23T22:39:00.801Z,37.54
2022-11-23T22:41:20.989Z,37.58
2022-11-23T22:43:47.340Z,37.64
2022-11-23T22:46:13.753Z,37.63
2022-11-23T22:48:40.040Z,37.63
2022-11-23T22:51:06.416Z,37.66
2022-11-23T22:53:32.723Z,37.64
2022-11-23T22:55:59.069Z,37.67
2022-11-23T22:58:25.414Z,37.72
2022-11-23T23:00:51.762Z,37.73
2022-11-23T23:03:18.243Z,37.72
2022-11-23T23:05:44.467Z,37.79
2022-11-23T23:08:10.805Z,37.79
2022-11-23T23:10:37.153Z,37.81
2022-11-23T23:13:03.504Z,37.82
2022-11-23T23:15:29.882Z,37.86
2022-11-23T23:17:56.283Z,37.88
2022-11-23T23:20:22.630Z,37.89
2022-11-23T23:25:15.133Z,37.92
2022-11-23T23:27:41.507Z,37.95
2022-11-23T23:30:07.860Z,37.94
2022-11-23T23:32:34.211Z,37.98
2022-11-23T23:35:00.578Z,37.98
2022-11-23T23:37:26.922Z,37.99
2022-11-23T23:39:53.269Z,38.03
2022-11-23T23:42:19.624Z,38.04
2022-11-23T23:44:45.972Z,38.06
2022-11-23T23:47:12.342Z,38.10
2022-11-23T23:49:38.694Z,38.10
2022-11-23T23:52:05.040Z,38.10
2022-11-23T23:54:31.585Z,38.15
2022-11-23T23:56:57.756Z,38.23
2022-11-23T23:59:24.128Z,38.19
